Time;durP1;ratioP1;P1;durP2;ratioP2;P2;SDS_P1;SDS_P2;PMS_P1;PMS_P2;Temp;Humidity;BMP_temperature;BMP_pressure;BME280_temperature;BME280_humidity;BME280_pressure;Samples;Min_cycle;Max_cycle;Signal;HPM_P1;HPM_P2
2021/01/15 00:00:27;;;;;;;2.83;2.20;;;16.60;34.40;;;;;;6137131;23;20201;-78
2021/01/15 00:02:53;;;;;;;2.60;2.17;;;16.60;34.40;;;;;;6111927;23;20136;-78
2021/01/15 00:05:19;;;;;;;2.58;2.03;;;16.60;34.50;;;;;;6137983;23;20513;-78
2021/01/15 00:07:44;;;;;;;3.13;2.08;;;16.60;34.50;;;;;;6137935;23;20159;-78
2021/01/15 00:10:10;;;;;;;2.22;1.98;;;16.60;34.40;;;;;;6111293;23;20148;-78
2021/01/15 00:12:38;;;;;;;2.83;2.20;;;16.60;34.40;;;;;;6137383;23;20147;-78
2021/01/15 00:15:05;;;;;;;2.70;2.40;;;16.60;34.40;;;;;;6137733;23;20247;-78
2021/01/15 00:17:35;;;;;;;3.15;2.20;;;16.60;34.50;;;;;;6137378;23;20136;-78
2021/01/15 00:20:04;;;;;;;2.28;2.08;;;16.60;34.40;;;;;;6111147;23;20568;-78
2021/01/15 00:22:30;;;;;;;2.20;2.00;;;16.50;34.50;;;;;;6111817;23;20136;-79
2021/01/15 00:24:56;;;;;;;2.33;2.03;;;16.50;34.60;;;;;;6136864;23;20172;-78
2021/01/15 00:27:25;;;;;;;2.95;1.90;;;16.50;34.60;;;;;;6137033;23;20136;-78
2021/01/15 00:29:52;;;;;;;2.92;2.30;;;16.50;34.60;;;;;;6138388;23;20636;-78
2021/01/15 00:32:18;;;;;;;2.85;2.25;;;16.50;34.60;;;;;;6111515;23;20151;-78
2021/01/15 00:34:46;;;;;;;2.33;2.13;;;16.60;34.50;;;;;;6138816;23;20191;-78
2021/01/15 00:37:12;;;;;;;2.40;2.00;;;16.60;34.50;;;;;;6112694;23;20215;-78
2021/01/15 00:39:38;;;;;;;2.00;1.80;;;16.60;34.50;;;;;;6138750;23;20133;-78
2021/01/15 00:42:04;;;;;;;2.58;2.20;;;16.60;34.60;;;;;;6138459;23;20133;-79
2021/01/15 00:44:29;;;;;;;2.53;2.22;;;16.50;34.60;;;;;;6112884;23;20144;-78
2021/01/15 00:46:55;;;;;;;2.70;2.17;;;16.50;34.60;;;;;;6139785;23;20136;-78
2021/01/15 00:49:21;;;;;;;2.53;2.20;;;16.50;34.60;;;;;;6138416;23;20556;-78
2021/01/15 00:51:48;;;;;;;2.50;2.05;;;16.50;34.70;;;;;;6088386;23;20152;-78
2021/01/15 00:54:13;;;;;;;2.33;2.03;;;16.50;34.70;;;;;;6112215;23;20183;-79
2021/01/15 00:56:39;;;;;;;2.25;1.90;;;16.50;34.70;;;;;;6112933;23;20564;-79
2021/01/15 00:59:05;;;;;;;2.30;2.08;;;16.50;34.70;;;;;;6137607;23;20570;-79
2021/01/15 01:01:30;;;;;;;2.72;2.03;;;16.40;34.70;;;;;;6138537;23;20191;-79
2021/01/15 01:03:56;;;;;;;3.65;2.28;;;16.50;34.60;;;;;;6138542;23;20133;-79
2021/01/15 01:06:23;;;;;;;3.03;2.20;;;16.50;34.70;;;;;;6137872;23;20148;-79
2021/01/15 01:08:49;;;;;;;2.67;2.10;;;16.50;34.60;;;;;;6112333;23;20143;-79
2021/01/15 01:11:22;;;;;;;2.58;2.20;;;16.50;34.70;;;;;;6112272;23;20132;-78
2021/01/15 01:14:01;;;;;;;2.45;1.98;;;16.50;34.80;;;;;;6138302;23;20140;-78
2021/01/15 01:16:27;;;;;;;2.30;2.10;;;16.50;34.70;;;;;;6111912;23;20172;-79
2021/01/15 01:18:53;;;;;;;1.83;1.73;;;16.50;34.70;;;;;;6137899;23;20147;-79
2021/01/15 01:21:19;;;;;;;3.05;2.20;;;16.50;34.70;;;;;;6138199;23;20137;-79
2021/01/15 01:23:44;;;;;;;2.80;2.28;;;16.50;34.70;;;;;;6137827;23;20139;-79
2021/01/15 01:26:10;;;;;;;2.42;2.00;;;16.50;34.70;;;;;;6112586;23;20171;-79
2021/01/15 01:28:36;;;;;;;2.58;2.30;;;16.40;34.70;;;;;;6087817;23;20136;-79
2021/01/15 01:31:02;;;;;;;2.22;2.03;;;16.40;34.80;;;;;;6137579;23;20136;-79
2021/01/15 01:33:27;;;;;;;2.47;2.03;;;16.40;34.80;;;;;;6088456;23;20198;-79
2021/01/15 01:35:54;;;;;;;2.20;1.88;;;16.40;34.70;;;;;;6111982;23;20163;-79
2021/01/15 01:38:21;;;;;;;3.10;2.10;;;16.40;34.80;;;;;;6111890;23;20233;-79
2021/01/15 01:40:47;;;;;;;2.33;2.05;;;16.40;34.90;;;;;;6087656;23;20151;-79
2021/01/15 01:43:13;;;;;;;2.50;2.17;;;16.40;34.90;;;;;;6112044;23;20613;-79
2021/01/15 01:45:41;;;;;;;2.28;2.08;;;16.40;34.90;;;;;;6111811;23;20143;-79
2021/01/15 01:48:08;;;;;;;2.92;2.10;;;16.40;34.90;;;;;;6137416;23;20569;-79
2021/01/15 01:50:34;;;;;;;2.78;2.10;;;16.40;34.90;;;;;;6088982;23;20136;-78
2021/01/15 01:53:00;;;;;;;2.80;2.25;;;16.40;34.80;;;;;;6089949;23;20223;-79
2021/01/15 01:55:27;;;;;;;2.40;2.20;;;16.40;34.80;;;;;;6066005;23;20641;-79
2021/01/15 01:57:54;;;;;;;2.70;2.17;;;16.40;34.90;;;;;;6113697;23;20128;-79
2021/01/15 02:00:20;;;;;;;2.25;2.05;;;16.40;34.90;;;;;;6140096;23;20191;-79
2021/01/15 02:02:47;;;;;;;2.58;2.00;;;16.40;34.90;;;;;;6139471;23;20132;-79
2021/01/15 02:05:14;;;;;;;3.53;2.28;;;16.40;35.00;;;;;;6112534;23;20144;-79
2021/01/15 02:07:39;;;;;;;2.72;2.25;;;16.40;34.90;;;;;;6139223;23;20512;-79
2021/01/15 02:10:16;;;;;;;2.60;2.20;;;16.40;34.80;;;;;;6138984;23;20144;-79
2021/01/15 02:12:52;;;;;;;2.55;2.25;;;16.40;34.80;;;;;;6113256;23;20137;-79
2021/01/15 02:15:29;;;;;;;2.80;2.20;;;16.40;34.90;;;;;;6113764;23;20164;-79
2021/01/15 02:18:06;;;;;;;2.90;2.20;;;16.40;34.90;;;;;;6115101;23;20158;-79
2021/01/15 02:21:02;;;;;;;2.25;2.05;;;16.40;34.80;;;;;;6112606;23;20151;-78
2021/01/15 02:23:37;;;;;;;2.63;2.30;;;16.40;34.90;;;;;;6117430;23;20148;-79
2021/01/15 02:26:06;;;;;;;2.63;2.13;;;16.40;35.00;;;;;;6139072;23;20136;-79
2021/01/15 02:28:50;;;;;;;2.42;1.90;;;16.40;34.90;;;;;;6138332;23;20200;-79
2021/01/15 02:31:45;;;;;;;2.22;2.00;;;16.50;34.80;;;;;;6138685;23;20136;-79
2021/01/15 02:34:31;;;;;;;2.53;2.00;;;16.40;34.80;;;;;;6020602;23;20191;-79
2021/01/15 02:37:07;;;;;;;2.08;1.88;;;16.40;34.90;;;;;;5996272;23;20231;-79
2021/01/15 02:39:54;;;;;;;2.17;1.95;;;16.40;34.80;;;;;;5997038;23;20162;-79
2021/01/15 02:42:20;;;;;;;2.60;2.10;;;16.50;34.90;;;;;;6019938;23;20162;-79
2021/01/15 02:44:49;;;;;;;2.47;1.83;;;16.40;34.80;;;;;;5996213;23;20215;-78
2021/01/15 02:47:27;;;;;;;2.42;1.98;;;16.40;34.80;;;;;;6018851;23;20167;-78
2021/01/15 02:49:53;;;;;;;2.15;1.95;;;16.50;34.80;;;;;;6018533;23;20143;-78
2021/01/15 02:52:19;;;;;;;2.17;1.95;;;16.40;34.90;;;;;;5995203;23;20239;-79
2021/01/15 02:54:46;;;;;;;3.15;2.15;;;16.50;34.90;;;;;;6018468;23;20167;-78
2021/01/15 02:57:12;;;;;;;3.05;2.30;;;16.50;34.80;;;;;;5995101;23;20135;-79
2021/01/15 02:59:39;;;;;;;2.20;1.75;;;16.50;34.70;;;;;;6017915;23;20240;-79
2021/01/15 03:02:15;;;;;;;3.63;2.28;;;16.50;34.70;;;;;;6019590;23;20160;-79
2021/01/15 03:04:55;;;;;;;2.47;2.05;;;16.50;34.70;;;;;;5996117;23;20222;-79
2021/01/15 03:07:22;;;;;;;2.50;2.00;;;16.50;34.60;;;;;;5974466;23;20158;-79
2021/01/15 03:09:52;;;;;;;2.38;2.00;;;16.50;34.60;;;;;;5996292;23;20184;-78
2021/01/15 03:12:18;;;;;;;2.13;1.92;;;16.50;34.60;;;;;;6111152;23;20148;-79
2021/01/15 03:14:44;;;;;;;2.63;2.25;;;16.50;34.70;;;;;;6087669;23;20635;-79
2021/01/15 03:17:11;;;;;;;2.97;1.70;;;16.50;34.70;;;;;;6111221;23;20143;-79
2021/01/15 03:19:38;;;;;;;2.40;1.95;;;16.50;34.60;;;;;;6063550;23;20483;-78
2021/01/15 03:22:18;;;;;;;1.90;1.70;;;16.50;34.60;;;;;;6111938;23;20133;-78
2021/01/15 03:24:57;;;;;;;1.95;1.60;;;16.50;34.70;;;;;;6088029;23;20136;-78
2021/01/15 03:27:29;;;;;;;2.40;2.00;;;16.50;34.70;;;;;;6112013;23;20140;-78
2021/01/15 03:29:56;;;;;;;2.55;2.10;;;16.50;34.70;;;;;;6111550;23;20487;-79
2021/01/15 03:32:22;;;;;;;2.75;2.17;;;16.50;34.70;;;;;;6110891;23;20459;-78
2021/01/15 03:34:49;;;;;;;2.25;2.05;;;16.50;34.60;;;;;;6112185;23;20160;-78
2021/01/15 03:37:14;;;;;;;2.13;1.90;;;16.50;34.70;;;;;;6110911;23;20551;-78
2021/01/15 03:39:42;;;;;;;2.10;1.80;;;16.50;34.60;;;;;;6137622;23;20156;-78
2021/01/15 03:42:17;;;;;;;2.00;1.80;;;16.50;34.60;;;;;;6136903;23;20599;-78
2021/01/15 03:44:45;;;;;;;2.55;1.90;;;16.50;34.50;;;;;;6137918;23;20136;-78
2021/01/15 03:47:11;;;;;;;3.00;2.13;;;16.60;34.60;;;;;;6138024;23;20524;-78
2021/01/15 03:49:36;;;;;;;3.15;2.10;;;16.60;34.60;;;;;;6137615;23;20632;-78
2021/01/15 03:52:03;;;;;;;1.65;1.55;;;16.60;34.50;;;;;;6137106;23;20136;-78
2021/01/15 03:54:30;;;;;;;1.85;1.65;;;16.60;34.50;;;;;;6137800;23;20574;-78
2021/01/15 03:56:55;;;;;;;2.47;1.98;;;16.60;34.40;;;;;;6137919;23;20576;-78
2021/01/15 03:59:22;;;;;;;2.17;1.77;;;16.60;34.40;;;;;;6110931;23;20132;-78
2021/01/15 04:01:48;;;;;;;1.88;1.65;;;16.60;34.50;;;;;;6137105;23;20159;-79
2021/01/15 04:04:13;;;;;;;2.00;1.80;;;16.60;34.50;;;;;;6137206;23;20224;-78
2021/01/15 04:06:41;;;;;;;2.30;2.00;;;16.60;34.50;;;;;;6137313;23;20132;-78
2021/01/15 04:09:06;;;;;;;2.05;1.80;;;16.60;34.50;;;;;;6137027;23;20203;-78
2021/01/15 04:11:32;;;;;;;2.30;1.80;;;16.60;34.40;;;;;;6111308;23;20556;-78
2021/01/15 04:13:59;;;;;;;2.25;1.90;;;16.70;34.40;;;;;;6136924;23;20132;-79
2021/01/15 04:16:24;;;;;;;2.00;1.80;;;16.60;34.40;;;;;;6137002;23;20591;-78
2021/01/15 04:18:50;;;;;;;1.70;1.60;;;16.60;34.40;;;;;;6136478;23;20129;-78
2021/01/15 04:21:16;;;;;;;1.75;1.65;;;16.60;34.40;;;;;;6137791;23;20156;-78
2021/01/15 04:23:43;;;;;;;2.08;1.77;;;16.60;34.50;;;;;;6111225;23;20133;-78
2021/01/15 04:26:08;;;;;;;2.28;1.80;;;16.60;34.40;;;;;;6111445;23;20136;-79
2021/01/15 04:28:36;;;;;;;2.10;1.90;;;16.60;34.40;;;;;;6137107;23;20476;-78
2021/01/15 04:31:01;;;;;;;1.90;1.80;;;16.60;34.50;;;;;;6137291;23;20144;-78
2021/01/15 04:33:27;;;;;;;1.98;1.70;;;16.60;34.40;;;;;;6137684;23;20137;-78
2021/01/15 04:35:53;;;;;;;2.00;1.73;;;16.60;34.40;;;;;;6137637;23;20164;-79
2021/01/15 04:38:19;;;;;;;2.13;1.50;;;16.60;34.40;;;;;;6136495;23;20183;-78
2021/01/15 04:40:45;;;;;;;2.50;2.10;;;16.60;34.40;;;;;;6137318;23;20132;-78
2021/01/15 04:43:11;;;;;;;1.95;1.77;;;16.60;34.30;;;;;;6086803;23;20155;-78
2021/01/15 04:45:37;;;;;;;1.90;1.70;;;16.60;34.40;;;;;;6087489;23;20160;-79
2021/01/15 04:48:03;;;;;;;2.08;1.63;;;16.60;34.40;;;;;;6087282;23;20155;-78
2021/01/15 04:50:29;;;;;;;1.60;1.50;;;16.60;34.40;;;;;;6110869;23;20148;-78
2021/01/15 04:52:56;;;;;;;2.35;1.85;;;16.60;34.40;;;;;;6110307;23;20139;-78
2021/01/15 04:55:25;;;;;;;2.35;1.80;;;16.60;34.30;;;;;;6086683;23;20715;-78
2021/01/15 04:57:51;;;;;;;1.98;1.60;;;16.60;34.20;;;;;;6136493;23;20140;-78
2021/01/15 05:00:19;;;;;;;2.17;1.70;;;16.50;34.20;;;;;;6111036;23;20138;-78
2021/01/15 05:02:46;;;;;;;2.13;1.67;;;16.50;34.30;;;;;;6137013;23;20137;-78
2021/01/15 05:05:18;;;;;;;1.90;1.70;;;16.50;34.20;;;;;;6110636;23;20219;-78
2021/01/15 05:08:12;;;;;;;1.83;1.73;;;16.60;34.10;;;;;;6137541;23;20144;-78
2021/01/15 05:10:45;;;;;;;2.20;1.58;;;16.60;34.00;;;;;;6111787;23;20163;-79
2021/01/15 05:13:14;;;;;;;1.75;1.48;;;16.60;34.00;;;;;;6111224;23;20667;-78
2021/01/15 05:15:47;;;;;;;1.80;1.60;;;16.60;33.90;;;;;;6087241;23;20163;-78
2021/01/15 05:18:14;;;;;;;2.00;1.80;;;16.60;33.90;;;;;;6136672;23;20136;-78
2021/01/15 05:20:40;;;;;;;2.05;1.60;;;16.60;33.70;;;;;;6111348;23;20133;-78
2021/01/15 05:23:07;;;;;;;1.88;1.65;;;16.60;33.90;;;;;;6111801;23;20128;-78
2021/01/15 05:25:41;;;;;;;2.25;1.70;;;16.60;33.90;;;;;;6088924;23;20159;-79
2021/01/15 05:28:07;;;;;;;1.70;1.50;;;16.50;33.90;;;;;;6112707;23;20475;-78
2021/01/15 05:30:34;;;;;;;1.95;1.55;;;16.50;33.90;;;;;;6138875;23;20587;-78
2021/01/15 05:33:15;;;;;;;1.77;1.55;;;16.50;33.80;;;;;;6113343;23;20132;-79
2021/01/15 05:35:50;;;;;;;1.58;1.48;;;16.50;33.90;;;;;;6139361;23;20172;-78
2021/01/15 05:38:17;;;;;;;2.05;1.85;;;16.50;33.70;;;;;;6138834;23;20490;-78
2021/01/15 05:40:45;;;;;;;2.03;1.60;;;16.50;33.80;;;;;;6138862;23;20164;-78
2021/01/15 05:43:33;;;;;;;1.90;1.70;;;16.50;33.90;;;;;;6139744;23;20156;-78
2021/01/15 05:46:16;;;;;;;1.90;1.67;;;16.50;33.70;;;;;;6092236;23;20133;-78
2021/01/15 05:49:07;;;;;;;1.80;1.55;;;16.50;33.70;;;;;;6139471;23;20137;-78
2021/01/15 05:51:35;;;;;;;2.65;1.83;;;16.50;33.60;;;;;;6138455;23;20148;-78
2021/01/15 05:54:02;;;;;;;1.90;1.70;;;16.50;33.60;;;;;;6138496;23;20168;-79
2021/01/15 05:56:38;;;;;;;2.25;1.70;;;16.50;33.60;;;;;;6139086;23;20132;-78
2021/01/15 05:59:03;;;;;;;1.75;1.60;;;16.50;33.60;;;;;;6138450;23;20172;-78
2021/01/15 06:01:46;;;;;;;1.70;1.60;;;16.50;33.50;;;;;;6139037;23;20141;-78
2021/01/15 06:04:14;;;;;;;1.60;1.50;;;16.50;33.40;;;;;;6113074;23;20140;-78
2021/01/15 06:06:40;;;;;;;2.15;1.55;;;16.50;33.40;;;;;;6087893;23;20148;-78
2021/01/15 06:09:09;;;;;;;1.60;1.45;;;16.50;33.40;;;;;;6139291;23;20211;-78
2021/01/15 06:11:36;;;;;;;1.70;1.60;;;16.60;33.30;;;;;;6112456;23;20132;-78
2021/01/15 06:14:23;;;;;;;1.90;1.60;;;16.50;33.30;;;;;;6138477;23;20139;-78
2021/01/15 06:16:49;;;;;;;1.65;1.50;;;16.60;33.20;;;;;;6137317;23;20584;-78
2021/01/15 06:19:15;;;;;;;2.20;1.63;;;16.60;33.20;;;;;;6113186;23;20196;-78
2021/01/15 06:21:51;;;;;;;2.05;1.50;;;16.60;33.00;;;;;;6112798;23;20154;-78
2021/01/15 06:24:20;;;;;;;1.90;1.55;;;16.60;33.00;;;;;;6113084;23;20136;-78
2021/01/15 06:26:46;;;;;;;1.67;1.58;;;16.60;33.10;;;;;;6088412;23;20557;-78
2021/01/15 06:29:12;;;;;;;1.60;1.50;;;16.60;33.10;;;;;;6088195;23;20133;-78
2021/01/15 06:31:50;;;;;;;2.78;1.70;;;16.60;33.00;;;;;;6138432;23;20151;-78
2021/01/15 06:34:20;;;;;;;2.03;1.60;;;16.60;33.10;;;;;;6112687;23;20132;-78
2021/01/15 06:36:50;;;;;;;1.92;1.70;;;16.50;33.10;;;;;;6137218;23;20136;-78
2021/01/15 06:39:16;;;;;;;1.70;1.60;;;16.50;33.20;;;;;;6112376;23;20144;-78
2021/01/15 06:41:42;;;;;;;1.75;1.40;;;16.50;33.10;;;;;;6113329;23;20616;-78
2021/01/15 06:44:09;;;;;;;1.75;1.48;;;16.50;33.00;;;;;;6138312;23;20136;-78
2021/01/15 06:46:43;;;;;;;1.35;1.25;;;16.50;33.00;;;;;;6138421;23;20136;-78
2021/01/15 06:49:17;;;;;;;1.77;1.40;;;16.50;32.90;;;;;;6113026;23;20136;-78
2021/01/15 06:52:03;;;;;;;1.85;1.75;;;16.50;32.80;;;;;;6087844;23;20156;-78
2021/01/15 06:54:37;;;;;;;2.00;1.63;;;16.50;32.90;;;;;;6111719;23;20188;-78
2021/01/15 06:57:13;;;;;;;1.52;1.42;;;16.50;32.80;;;;;;6138036;23;20135;-78
2021/01/15 06:59:46;;;;;;;2.00;1.48;;;16.60;32.70;;;;;;6112609;23;20132;-78
2021/01/15 07:02:31;;;;;;;2.05;1.83;;;16.50;32.80;;;;;;6139179;23;20144;-79
2021/01/15 07:05:02;;;;;;;1.85;1.60;;;16.50;32.80;;;;;;6113298;23;20449;-78
2021/01/15 07:07:32;;;;;;;3.13;1.75;;;16.40;32.80;;;;;;6139073;23;20147;-77
2021/01/15 07:10:00;;;;;;;1.60;1.50;;;16.40;33.60;;;;;;6114143;23;20148;-77
2021/01/15 07:12:26;;;;;;;1.73;1.60;;;16.40;32.80;;;;;;6139874;23;20161;-77
2021/01/15 07:14:56;;;;;;;2.03;1.60;;;16.50;32.80;;;;;;6139671;23;20168;-78
2021/01/15 07:17:36;;;;;;;1.58;1.40;;;16.40;32.80;;;;;;6113206;23;20464;-77
2021/01/15 07:20:09;;;;;;;1.98;1.70;;;16.40;32.80;;;;;;6140167;23;20577;-77
2021/01/15 07:23:00;;;;;;;1.80;1.60;;;16.40;32.60;;;;;;6140324;23;20161;-77
2021/01/15 07:25:27;;;;;;;1.67;1.58;;;16.50;32.70;;;;;;6136730;23;20224;-77
2021/01/15 07:27:53;;;;;;;1.88;1.70;;;16.50;32.60;;;;;;6114213;23;20132;-77
2021/01/15 07:30:30;;;;;;;2.08;1.67;;;16.50;32.60;;;;;;6139888;23;20136;-77
2021/01/15 07:32:58;;;;;;;1.50;1.40;;;16.60;32.40;;;;;;6114197;23;20136;-77
2021/01/15 07:35:26;;;;;;;1.67;1.58;;;16.60;32.30;;;;;;6113956;23;20227;-78
2021/01/15 07:38:07;;;;;;;1.90;1.60;;;16.60;32.40;;;;;;6108364;23;20199;-77
2021/01/15 07:40:38;;;;;;;2.13;1.70;;;16.60;32.50;;;;;;6109791;23;20133;-77
2021/01/15 07:43:03;;;;;;;1.83;1.70;;;16.50;32.50;;;;;;6108256;23;20144;-78
2021/01/15 07:45:32;;;;;;;1.73;1.48;;;16.50;32.50;;;;;;6109076;23;20145;-77
2021/01/15 07:48:01;;;;;;;1.63;1.50;;;16.40;32.70;;;;;;6109318;23;20160;-78
2021/01/15 07:50:34;;;;;;;1.88;1.70;;;16.50;32.50;;;;;;6110222;23;20140;-77
2021/01/15 07:53:18;;;;;;;2.28;1.65;;;16.60;32.40;;;;;;6110193;23;20136;-77
2021/01/15 07:55:47;;;;;;;1.65;1.55;;;16.60;32.30;;;;;;6108508;23;20651;-77
2021/01/15 07:58:15;;;;;;;2.45;1.65;;;16.60;32.30;;;;;;6110127;23;20133;-77
2021/01/15 08:00:42;;;;;;;1.52;1.42;;;16.60;32.30;;;;;;6083887;23;20558;-77
2021/01/15 08:03:10;;;;;;;2.03;1.83;;;16.60;32.30;;;;;;6109844;23;20141;-78
2021/01/15 08:05:36;;;;;;;2.15;1.70;;;16.50;32.30;;;;;;6108544;23;20152;-77
2021/01/15 08:08:16;;;;;;;2.00;1.80;;;16.50;32.40;;;;;;6108344;23;20194;-78
2021/01/15 08:10:44;;;;;;;1.92;1.70;;;16.60;32.20;;;;;;6108417;23;20147;-78
2021/01/15 08:13:20;;;;;;;1.88;1.50;;;16.60;32.20;;;;;;6105808;23;20133;-78
2021/01/15 08:15:47;;;;;;;1.85;1.70;;;16.50;32.10;;;;;;6108344;23;20635;-77
2021/01/15 08:18:14;;;;;;;2.65;1.92;;;16.50;32.10;;;;;;6082310;23;20584;-78
2021/01/15 08:20:48;;;;;;;2.17;1.65;;;16.60;32.00;;;;;;6106314;23;20167;-77
2021/01/15 08:23:36;;;;;;;1.70;1.38;;;16.60;32.00;;;;;;6106125;23;20592;-77
2021/01/15 08:26:07;;;;;;;1.70;1.60;;;16.50;32.10;;;;;;6106689;23;20148;-78
2021/01/15 08:28:38;;;;;;;1.70;1.52;;;16.50;32.10;;;;;;6108020;23;20145;-78
2021/01/15 08:31:06;;;;;;;2.05;1.50;;;16.50;32.00;;;;;;6109195;23;20162;-78
2021/01/15 08:33:33;;;;;;;1.90;1.55;;;16.50;31.90;;;;;;6108931;23;20159;-77
2021/01/15 08:36:01;;;;;;;1.92;1.55;;;16.60;31.80;;;;;;6108779;23;20161;-77
2021/01/15 08:38:37;;;;;;;2.15;1.70;;;16.60;31.80;;;;;;6130952;23;20238;-77
2021/01/15 08:41:14;;;;;;;1.55;1.45;;;16.60;31.60;;;;;;6110300;23;20132;-78
2021/01/15 08:43:40;;;;;;;1.95;1.80;;;16.60;31.70;;;;;;6136831;23;20136;-78
2021/01/15 08:46:13;;;;;;;1.90;1.70;;;16.60;31.70;;;;;;6136867;23;20152;-78
2021/01/15 08:48:47;;;;;;;1.80;1.60;;;16.60;31.70;;;;;;6110993;23;20155;-77
2021/01/15 08:51:19;;;;;;;1.52;1.40;;;16.60;31.60;;;;;;6136950;23;20218;-78
2021/01/15 08:54:05;;;;;;;1.70;1.60;;;16.60;31.60;;;;;;6137088;23;20147;-78
2021/01/15 08:56:39;;;;;;;1.90;1.70;;;16.60;31.60;;;;;;6114417;23;20198;-78
2021/01/15 08:59:26;;;;;;;2.20;1.80;;;16.60;31.50;;;;;;6136110;23;20163;-78
2021/01/15 09:01:53;;;;;;;1.98;1.60;;;16.70;31.40;;;;;;6087685;23;20132;-78
2021/01/15 09:04:25;;;;;;;1.52;1.42;;;16.70;31.40;;;;;;6136159;23;20163;-78
2021/01/15 09:06:56;;;;;;;1.60;1.45;;;16.70;31.10;;;;;;6110094;23;20240;-78
2021/01/15 09:09:24;;;;;;;1.70;1.60;;;16.70;31.20;;;;;;6110085;23;20143;-78
2021/01/15 09:11:51;;;;;;;1.83;1.63;;;16.60;31.20;;;;;;6086849;23;20148;-78
2021/01/15 09:14:22;;;;;;;1.70;1.60;;;16.70;31.30;;;;;;6137217;23;20136;-78
2021/01/15 09:16:48;;;;;;;1.95;1.70;;;16.70;31.10;;;;;;6086877;23;20136;-78
2021/01/15 09:19:14;;;;;;;1.67;1.58;;;16.70;31.10;;;;;;6111245;23;20135;-77
2021/01/15 09:21:47;;;;;;;2.00;1.70;;;16.70;31.20;;;;;;6112017;23;20136;-78
2021/01/15 09:24:13;;;;;;;2.13;1.92;;;16.60;31.40;;;;;;6111470;23;20608;-78
2021/01/15 09:26:40;;;;;;;2.25;1.80;;;16.60;31.30;;;;;;6111952;23;20136;-77
2021/01/15 09:29:05;;;;;;;2.00;1.70;;;16.60;31.40;;;;;;6138045;23;20187;-77
2021/01/15 09:31:31;;;;;;;2.10;1.77;;;16.60;31.20;;;;;;6138237;23;20155;-78
2021/01/15 09:33:57;;;;;;;2.00;1.60;;;16.70;31.00;;;;;;6112465;23;20136;-77
2021/01/15 09:36:24;;;;;;;1.90;1.65;;;16.70;31.10;;;;;;6138319;23;20167;-77
2021/01/15 09:38:53;;;;;;;1.52;1.40;;;16.60;31.10;;;;;;6138134;23;20198;-77
2021/01/15 09:41:19;;;;;;;4.07;1.80;;;16.70;31.00;;;;;;6137708;23;20136;-78
2021/01/15 09:43:47;;;;;;;1.95;1.45;;;16.70;31.10;;;;;;6111694;23;20132;-77
2021/01/15 09:46:21;;;;;;;1.50;1.40;;;16.70;31.10;;;;;;6112304;23;20132;-77
2021/01/15 09:48:56;;;;;;;1.63;1.50;;;16.60;31.10;;;;;;6136838;23;20156;-77
2021/01/15 09:51:24;;;;;;;2.00;1.42;;;16.60;31.10;;;;;;6086790;23;20155;-78
2021/01/15 09:53:51;;;;;;;1.40;1.30;;;16.70;31.10;;;;;;6135899;23;20136;-78
2021/01/15 09:56:25;;;;;;;1.85;1.67;;;16.70;31.10;;;;;;6110838;23;20179;-78
2021/01/15 09:58:53;;;;;;;1.60;1.50;;;16.70;31.00;;;;;;6135752;23;20138;-77
2021/01/15 10:01:20;;;;;;;2.08;1.80;;;16.70;30.80;;;;;;6109844;23;20137;-78
2021/01/15 10:03:45;;;;;;;1.90;1.60;;;16.70;30.80;;;;;;6109663;23;20160;-78
2021/01/15 10:06:18;;;;;;;1.70;1.60;;;16.70;30.90;;;;;;6110199;23;20140;-78
2021/01/15 10:08:46;;;;;;;1.70;1.60;;;16.80;30.80;;;;;;6110454;23;20467;-77
2021/01/15 10:11:42;;;;;;;2.30;1.50;;;16.80;30.70;;;;;;6137014;23;20281;-78
2021/01/15 10:14:12;;;;;;;2.03;1.70;;;16.80;30.80;;;;;;6019590;23;20241;-77
2021/01/15 10:16:58;;;;;;;2.03;1.52;;;16.80;30.70;;;;;;5995964;23;20216;-78
2021/01/15 10:19:23;;;;;;;1.77;1.63;;;16.80;30.80;;;;;;6016939;23;20477;-78
2021/01/15 10:21:51;;;;;;;1.60;1.50;;;16.80;30.80;;;;;;6021151;23;20159;-77
2021/01/15 10:24:17;;;;;;;2.60;1.77;;;16.80;30.60;;;;;;5996452;23;20158;-78
2021/01/15 10:26:42;;;;;;;1.60;1.50;;;16.90;30.50;;;;;;6021498;23;20199;-77
2021/01/15 10:29:10;;;;;;;2.08;1.58;;;16.90;30.50;;;;;;6020490;23;20168;-78
2021/01/15 10:31:50;;;;;;;1.77;1.60;;;16.90;30.30;;;;;;5997406;23;20254;-78
2021/01/15 10:34:16;;;;;;;2.00;1.80;;;16.90;30.30;;;;;;5997687;23;20135;-78
2021/01/15 10:36:42;;;;;;;1.90;1.70;;;16.90;30.40;;;;;;5996748;23;20154;-78
2021/01/15 10:39:08;;;;;;;1.55;1.45;;;16.90;30.40;;;;;;5973896;23;20139;-77
2021/01/15 10:41:40;;;;;;;2.28;1.80;;;16.90;30.50;;;;;;6019470;23;20171;-77
2021/01/15 10:44:09;;;;;;;1.60;1.50;;;16.90;30.50;;;;;;5995965;23;20155;-78
2021/01/15 10:46:43;;;;;;;1.60;1.50;;;16.80;30.50;;;;;;6020555;23;20479;-77
2021/01/15 10:49:28;;;;;;;1.90;1.70;;;16.90;30.50;;;;;;6020222;23;20180;-77
2021/01/15 10:51:55;;;;;;;1.52;1.42;;;16.80;30.60;;;;;;6110167;23;20147;-76
2021/01/15 10:54:22;;;;;;;1.83;1.60;;;16.80;30.50;;;;;;6137986;23;20141;-78
2021/01/15 10:56:51;;;;;;;1.90;1.70;;;16.80;30.50;;;;;;6138456;23;20133;-77
2021/01/15 10:59:25;;;;;;;1.90;1.70;;;16.90;30.40;;;;;;6138691;23;20152;-77
2021/01/15 11:01:52;;;;;;;1.65;1.55;;;16.90;30.50;;;;;;6138645;23;20315;-77
2021/01/15 11:04:19;;;;;;;2.30;1.88;;;16.80;30.40;;;;;;6138642;23;20163;-78
2021/01/15 11:06:47;;;;;;;2.03;1.70;;;16.90;30.40;;;;;;6138470;23;20132;-78
2021/01/15 11:09:16;;;;;;;2.42;1.77;;;16.90;30.40;;;;;;6139076;23;20203;-78
2021/01/15 11:11:56;;;;;;;1.85;1.65;;;16.90;30.30;;;;;;6113341;23;20132;-78
2021/01/15 11:14:22;;;;;;;2.25;1.65;;;16.90;30.30;;;;;;6138055;23;20132;-78
2021/01/15 11:16:49;;;;;;;3.00;1.95;;;16.90;30.40;;;;;;6112721;23;20128;-78
2021/01/15 11:19:16;;;;;;;2.03;1.83;;;16.90;30.40;;;;;;6137125;23;20134;-77
2021/01/15 11:21:43;;;;;;;2.20;2.00;;;16.80;30.40;;;;;;6088346;23;20184;-78
2021/01/15 11:24:12;;;;;;;1.73;1.63;;;16.90;30.40;;;;;;6113121;23;20133;-78
2021/01/15 11:26:39;;;;;;;2.58;2.00;;;16.90;30.40;;;;;;6138544;23;20133;-77
2021/01/15 11:29:07;;;;;;;2.03;1.60;;;16.80;30.50;;;;;;6137033;23;20133;-78
2021/01/15 11:31:35;;;;;;;2.45;1.98;;;16.90;30.40;;;;;;6136026;23;20136;-79
2021/01/15 11:34:09;;;;;;;2.08;1.80;;;16.90;30.30;;;;;;6110338;23;20136;-78
2021/01/15 11:36:36;;;;;;;1.80;1.70;;;16.90;30.20;;;;;;6135914;23;20562;-78
2021/01/15 11:39:22;;;;;;;1.90;1.52;;;16.90;30.20;;;;;;6110176;23;20240;-79
2021/01/15 11:41:52;;;;;;;2.60;1.73;;;16.90;30.20;;;;;;6132016;23;20219;-77
2021/01/15 11:44:19;;;;;;;2.22;1.88;;;16.90;30.20;;;;;;6136311;23;20132;-78
2021/01/15 11:46:44;;;;;;;2.30;1.80;;;16.90;30.20;;;;;;6135414;23;20132;-77
2021/01/15 11:49:11;;;;;;;3.40;2.28;;;16.90;30.20;;;;;;6135983;23;20140;-78
2021/01/15 11:51:38;;;;;;;2.30;1.90;;;16.90;30.10;;;;;;6109508;23;20224;-78
2021/01/15 11:54:12;;;;;;;2.08;1.80;;;17.00;30.10;;;;;;6135824;23;20160;-78
2021/01/15 11:57:00;;;;;;;1.90;1.73;;;16.90;30.00;;;;;;6139232;23;20147;-78
2021/01/15 11:59:26;;;;;;;2.00;1.70;;;16.90;30.00;;;;;;6135092;23;20132;-77
2021/01/15 12:01:58;;;;;;;2.25;1.88;;;17.00;30.00;;;;;;6136719;23;20137;-78
2021/01/15 12:04:24;;;;;;;2.22;1.88;;;16.90;30.00;;;;;;6136649;23;20171;-77
2021/01/15 12:06:54;;;;;;;2.00;1.70;;;17.00;30.00;;;;;;6135323;23;20140;-78
2021/01/15 12:09:27;;;;;;;2.00;1.80;;;16.90;30.00;;;;;;6136408;23;20147;-78
2021/01/15 12:12:02;;;;;;;3.40;1.80;;;17.00;30.00;;;;;;6135328;23;20592;-77
2021/01/15 12:14:28;;;;;;;2.03;1.83;;;17.00;29.90;;;;;;6110118;23;20140;-78
2021/01/15 12:16:58;;;;;;;2.10;1.90;;;17.00;29.80;;;;;;6111926;23;20501;-78
2021/01/15 12:19:25;;;;;;;2.33;1.98;;;17.00;29.90;;;;;;6111128;23;20231;-78
2021/01/15 12:21:52;;;;;;;1.70;1.60;;;17.00;29.90;;;;;;6137123;23;20132;-77
2021/01/15 12:24:20;;;;;;;2.00;1.80;;;17.00;29.80;;;;;;6136655;23;20136;-78
2021/01/15 12:26:47;;;;;;;1.75;1.60;;;17.00;29.90;;;;;;6137038;23;20136;-77
2021/01/15 12:29:13;;;;;;;1.70;1.52;;;17.00;29.90;;;;;;6110785;23;20136;-77
2021/01/15 12:31:39;;;;;;;1.95;1.75;;;17.00;29.90;;;;;;6086875;23;20471;-78
2021/01/15 12:34:06;;;;;;;2.10;1.90;;;16.90;30.50;;;;;;6110152;23;20239;-77
2021/01/15 12:36:33;;;;;;;1.83;1.73;;;16.90;29.90;;;;;;6110646;23;20570;-78
2021/01/15 12:38:59;;;;;;;1.80;1.70;;;16.90;29.90;;;;;;6136243;23;20211;-77
2021/01/15 12:41:30;;;;;;;2.15;1.63;;;16.90;29.90;;;;;;6112453;23;20148;-77
2021/01/15 12:43:56;;;;;;;1.90;1.70;;;16.90;29.90;;;;;;6109759;23;20195;-78
2021/01/15 12:46:23;;;;;;;2.05;1.80;;;16.90;29.90;;;;;;6133190;23;20144;-76
2021/01/15 12:48:49;;;;;;;1.92;1.63;;;16.90;29.90;;;;;;6108968;23;20465;-77
2021/01/15 12:51:17;;;;;;;2.00;1.80;;;16.90;29.90;;;;;;6132832;23;20147;-78
2021/01/15 12:53:44;;;;;;;2.22;1.90;;;16.90;30.00;;;;;;6137592;23;20132;-77
2021/01/15 12:56:13;;;;;;;1.98;1.77;;;16.90;29.90;;;;;;6135222;23;20219;-77
2021/01/15 12:58:39;;;;;;;1.77;1.55;;;16.90;30.40;;;;;;6134649;23;20183;-77
2021/01/15 13:01:06;;;;;;;1.70;1.50;;;16.90;29.90;;;;;;6135974;23;20143;-77